createdAt,value
2022-07-30T00:01:25.656Z,3.38
2022-07-30T00:03:53.275Z,3.58
2022-07-30T00:06:20.852Z,3.33
2022-07-30T00:08:50.092Z,3.70
2022-07-30T00:11:17.792Z,3.80
2022-07-30T00:13:45.714Z,3.60
2022-07-30T00:16:13.370Z,3.42
2022-07-30T00:18:40.980Z,4.22
2022-07-30T00:21:11.105Z,4.07
2022-07-30T00:26:08.966Z,3.80
2022-07-30T00:28:36.525Z,3.92
2022-07-30T00:31:04.184Z,4.13
2022-07-30T00:33:31.841Z,3.70
2022-07-30T00:35:59.439Z,4.00
2022-07-30T00:38:27.016Z,4.28
2022-07-30T00:40:54.858Z,4.18
2022-07-30T00:43:24.125Z,3.78
2022-07-30T00:45:51.896Z,4.10
2022-07-30T00:48:19.572Z,3.85
2022-07-30T00:50:47.225Z,3.97
2022-07-30T00:53:16.224Z,4.43
2022-07-30T00:55:43.923Z,4.60
2022-07-30T00:58:11.538Z,3.90
2022-07-30T01:00:40.419Z,4.28
2022-07-30T01:03:08.033Z,4.32
2022-07-30T01:05:35.722Z,4.50
2022-07-30T01:08:03.655Z,4.82
2022-07-30T01:10:31.252Z,4.30
2022-07-30T01:12:59.623Z,4.30
2022-07-30T01:15:27.301Z,4.35
2022-07-30T01:17:56.607Z,4.40
2022-07-30T01:20:24.634Z,5.28
2022-07-30T01:22:53.425Z,4.70
2022-07-30T01:25:23.456Z,5.03
2022-07-30T01:27:53.202Z,5.07
2022-07-30T01:30:21.368Z,4.47
2022-07-30T01:32:49.229Z,4.88
2022-07-30T01:35:17.185Z,5.05
2022-07-30T01:37:51.483Z,4.43
2022-07-30T01:40:19.513Z,4.78
2022-07-30T01:42:47.924Z,4.88
2022-07-30T01:45:17.589Z,4.57
2022-07-30T01:47:45.439Z,5.05
2022-07-30T01:50:14.487Z,4.60
2022-07-30T01:52:43.012Z,5.20
2022-07-30T01:55:17.110Z,4.80
2022-07-30T01:57:45.803Z,5.65
2022-07-30T02:00:13.668Z,5.47
2022-07-30T02:02:45.926Z,4.15
2022-07-30T02:05:14.832Z,5.07
2022-07-30T02:07:44.126Z,4.95
2022-07-30T02:10:14.254Z,4.95
2022-07-30T02:12:47.392Z,5.15
2022-07-30T02:15:16.148Z,4.68
2022-07-30T02:17:45.264Z,4.85
2022-07-30T02:20:14.602Z,5.38
2022-07-30T02:25:11.632Z,4.28
2022-07-30T02:27:39.973Z,5.28
2022-07-30T02:30:08.219Z,5.15
2022-07-30T02:32:36.380Z,4.60
2022-07-30T02:35:06.204Z,5.28
2022-07-30T02:37:43.803Z,4.90
2022-07-30T02:40:13.875Z,4.72
2022-07-30T02:42:41.669Z,5.03
2022-07-30T02:45:09.554Z,5.07
2022-07-30T02:47:37.255Z,4.63
2022-07-30T02:50:05.875Z,4.15
2022-07-30T02:52:33.551Z,4.32
2022-07-30T02:55:02.545Z,4.22
2022-07-30T02:57:30.159Z,4.55
2022-07-30T03:00:03.279Z,4.45
2022-07-30T03:02:31.570Z,4.30
2022-07-30T03:04:59.354Z,4.70
2022-07-30T03:07:27.113Z,4.65
2022-07-30T03:09:55.661Z,4.47
2022-07-30T03:12:26.672Z,4.53
2022-07-30T03:14:54.459Z,4.65
2022-07-30T03:17:22.403Z,4.75
2022-07-30T03:19:50.107Z,4.93
2022-07-30T03:22:18.417Z,4.95
2022-07-30T03:24:46.096Z,4.88
2022-07-30T03:27:14.169Z,4.35
2022-07-30T03:29:43.218Z,4.53
2022-07-30T03:32:12.933Z,5.18
2022-07-30T03:34:41.656Z,5.70
2022-07-30T03:37:09.220Z,4.32
2022-07-30T03:39:37.187Z,4.47
2022-07-30T03:42:05.785Z,5.57
2022-07-30T03:44:33.815Z,4.85
2022-07-30T03:47:05.358Z,6.05
2022-07-30T03:49:38.468Z,4.80
2022-07-30T03:52:06.564Z,4.72
2022-07-30T03:54:35.454Z,5.35
2022-07-30T03:57:23.005Z,5.60
2022-07-30T03:59:52.162Z,5.47
2022-07-30T04:02:47.184Z,5.65
2022-07-30T04:05:19.464Z,5.00
2022-07-30T04:07:49.118Z,4.97
2022-07-30T04:10:20.364Z,5.07
2022-07-30T04:13:09.833Z,5.55
2022-07-30T04:16:40.169Z,5.45
2022-07-30T04:18:27.428Z,5.43
2022-07-30T04:20:56.358Z,5.13
2022-07-30T04:23:24.024Z,5.25
2022-07-30T04:25:51.818Z,5.30
2022-07-30T04:28:20.101Z,5.20
2022-07-30T04:30:47.801Z,5.18
2022-07-30T04:33:15.633Z,4.97
2022-07-30T04:36:08.305Z,5.57
2022-07-30T04:38:38.602Z,5.07
2022-07-30T04:41:06.788Z,6.05
2022-07-30T04:43:54.325Z,5.65
2022-07-30T04:46:23.257Z,5.47
2022-07-30T04:48:53.995Z,5.72
2022-07-30T04:51:24.376Z,5.15
2022-07-30T04:53:52.162Z,5.10
2022-07-30T04:56:21.826Z,5.65
2022-07-30T04:58:49.745Z,5.50
2022-07-30T05:01:18.395Z,6.10
2022-07-30T05:03:46.889Z,5.40
2022-07-30T05:06:14.944Z,6.13
2022-07-30T05:08:44.194Z,5.70
2022-07-30T05:13:41.346Z,6.15
2022-07-30T05:16:14.763Z,6.53
2022-07-30T05:18:42.628Z,6.35
2022-07-30T05:21:11.235Z,6.28
2022-07-30T05:23:50.869Z,5.95
2022-07-30T05:26:27.864Z,6.78
2022-07-30T05:28:57.489Z,6.75
2022-07-30T05:31:33.226Z,5.60
2022-07-30T05:34:03.956Z,7.25
2022-07-30T05:36:42.737Z,6.57
2022-07-30T05:39:13.755Z,7.22
2022-07-30T05:42:01.391Z,7.30
2022-07-30T05:44:35.932Z,7.70
2022-07-30T05:47:03.868Z,8.20
2022-07-30T05:49:31.657Z,9.10
2022-07-30T05:52:07.187Z,8.18
2022-07-30T05:54:36.809Z,7.47
2022-07-30T05:57:11.895Z,8.50
2022-07-30T05:59:40.900Z,9.98
2022-07-30T06:02:10.003Z,8.75
2022-07-30T06:04:57.652Z,11.88
2022-07-30T06:07:25.542Z,10.05
2022-07-30T06:09:59.982Z,10.82
2022-07-30T06:12:28.420Z,10.85
2022-07-30T06:14:56.161Z,10.43
2022-07-30T06:17:28.934Z,11.25
2022-07-30T06:20:16.976Z,10.60
2022-07-30T06:22:55.555Z,11.18
2022-07-30T06:25:56.759Z,11.48
2022-07-30T06:28:37.526Z,11.35
2022-07-30T06:31:11.683Z,11.15
2022-07-30T06:33:39.955Z,11.60
2022-07-30T06:36:07.646Z,12.18
2022-07-30T06:38:48.435Z,11.73
2022-07-30T06:41:21.666Z,10.73
2022-07-30T06:43:54.444Z,10.57
2022-07-30T06:46:42.066Z,9.70
2022-07-30T06:49:12.143Z,10.27
2022-07-30T06:51:39.778Z,12.00
2022-07-30T06:54:07.642Z,10.75
2022-07-30T06:56:36.413Z,11.57
2022-07-30T06:59:08.316Z,10.57
2022-07-30T07:01:55.983Z,9.85
2022-07-30T07:04:24.716Z,11.20
2022-07-30T07:06:53.204Z,10.75
2022-07-30T07:09:29.415Z,10.43
2022-07-30T07:12:16.503Z,10.45
2022-07-30T07:14:47.018Z,10.82
2022-07-30T07:17:14.974Z,10.48
2022-07-30T07:20:00.990Z,10.93
2022-07-30T07:22:34.183Z,9.50
2022-07-30T07:25:01.903Z,10.02
2022-07-30T07:28:12.194Z,10.32
2022-07-30T07:30:43.272Z,9.73
2022-07-30T07:33:12.018Z,9.88
2022-07-30T07:35:48.533Z,10.18
2022-07-30T07:38:23.352Z,10.55
2022-07-30T07:40:52.545Z,10.48
2022-07-30T07:43:20.198Z,11.00
2022-07-30T07:45:49.425Z,10.88
2022-07-30T07:48:36.719Z,10.32
2022-07-30T07:51:47.031Z,10.50
2022-07-30T07:54:21.745Z,10.02
2022-07-30T07:56:51.547Z,10.32
2022-07-30T07:59:23.008Z,10.63
2022-07-30T08:01:57.011Z,8.70
2022-07-30T08:04:45.315Z,7.63
2022-07-30T08:07:13.109Z,7.03
2022-07-30T08:09:56.399Z,7.22
2022-07-30T08:12:38.177Z,7.68
2022-07-30T08:15:25.761Z,8.20
2022-07-30T08:18:14.713Z,6.65
2022-07-30T08:20:50.072Z,7.90
2022-07-30T08:23:23.413Z,6.90
2022-07-30T08:25:51.690Z,7.00
2022-07-30T08:28:35.328Z,6.78
2022-07-30T08:31:04.677Z,6.88
2022-07-30T08:33:33.674Z,7.07
2022-07-30T08:36:04.205Z,6.35
2022-07-30T08:38:38.691Z,5.68
2022-07-30T08:41:08.404Z,5.70
2022-07-30T08:43:36.452Z,6.25
2022-07-30T08:46:05.293Z,6.20
2022-07-30T08:48:54.228Z,6.28
2022-07-30T08:51:21.959Z,6.75
2022-07-30T08:54:09.737Z,5.85
2022-07-30T08:56:38.592Z,5.38
2022-07-30T08:59:07.967Z,5.68
2022-07-30T09:01:35.742Z,6.30
2022-07-30T09:06:33.650Z,6.13
2022-07-30T09:09:02.594Z,5.45
2022-07-30T09:11:30.441Z,7.32
2022-07-30T09:13:58.062Z,6.18
2022-07-30T09:16:26.290Z,5.65
2022-07-30T09:18:57.140Z,5.60
2022-07-30T09:21:26.579Z,5.57
2022-07-30T09:27:02.089Z,7.18
2022-07-30T09:29:50.160Z,7.07
2022-07-30T09:32:47.761Z,6.13
2022-07-30T09:35:35.646Z,6.50
2022-07-30T09:38:12.175Z,6.15
2022-07-30T09:41:04.805Z,5.40
2022-07-30T09:43:43.733Z,6.18
2022-07-30T09:46:19.779Z,7.05
2022-07-30T09:48:47.728Z,5.93
2022-07-30T09:51:15.778Z,6.05
2022-07-30T09:53:59.060Z,7.33
2022-07-30T09:56:30.507Z,5.90
2022-07-30T09:58:59.906Z,5.50
2022-07-30T10:01:49.911Z,7.03
2022-07-30T10:04:35.841Z,6.88
2022-07-30T10:07:25.399Z,6.40
2022-07-30T10:09:59.800Z,5.63
2022-07-30T10:12:28.150Z,5.82
2022-07-30T10:14:57.661Z,5.00
2022-07-30T10:17:25.512Z,4.13
2022-07-30T10:20:12.328Z,5.70
2022-07-30T10:23:00.197Z,5.07
2022-07-30T10:25:37.173Z,5.45
2022-07-30T10:28:38.819Z,6.45
2022-07-30T10:31:08.293Z,6.22
2022-07-30T10:33:55.099Z,6.00
2022-07-30T10:36:23.930Z,5.20
2022-07-30T10:38:52.613Z,4.82
2022-07-30T10:41:44.471Z,5.20
2022-07-30T10:44:26.261Z,4.75
2022-07-30T10:46:57.613Z,5.35
2022-07-30T10:49:26.643Z,4.70
2022-07-30T10:51:55.263Z,4.47
2022-07-30T10:54:39.364Z,3.47
2022-07-30T10:57:09.441Z,4.68
2022-07-30T10:59:58.699Z,4.47
2022-07-30T11:02:28.793Z,3.55
2022-07-30T11:05:13.880Z,3.92
2022-07-30T11:07:43.049Z,4.10
2022-07-30T11:10:30.150Z,4.72
2022-07-30T11:13:25.132Z,4.07
2022-07-30T11:15:56.689Z,3.65
2022-07-30T11:18:25.026Z,3.33
2022-07-30T11:21:07.685Z,3.30
2022-07-30T11:23:41.311Z,3.22
2022-07-30T11:26:14.259Z,3.95
2022-07-30T11:28:43.335Z,3.67
2022-07-30T11:31:37.177Z,3.58
2022-07-30T11:34:25.886Z,3.22
2022-07-30T11:37:18.427Z,4.15
2022-07-30T11:40:10.425Z,2.97
2022-07-30T11:42:38.665Z,3.60
2022-07-30T11:45:27.118Z,3.05
2022-07-30T11:47:56.881Z,3.40
2022-07-30T11:50:25.568Z,2.92
2022-07-30T11:52:53.286Z,3.10
2022-07-30T11:55:25.290Z,2.72
2022-07-30T11:57:53.289Z,2.80
2022-07-30T12:00:20.975Z,3.10
2022-07-30T12:05:23.754Z,2.60
2022-07-30T12:07:51.416Z,2.80
2022-07-30T12:10:27.152Z,3.17
2022-07-30T12:12:55.444Z,3.10
2022-07-30T12:15:47.474Z,2.83
2022-07-30T12:18:26.486Z,2.67
2022-07-30T12:20:57.681Z,2.72
2022-07-30T12:23:27.388Z,2.45
2022-07-30T12:25:55.030Z,2.90
2022-07-30T12:28:23.076Z,2.47
2022-07-30T12:30:50.964Z,2.70
2022-07-30T12:33:19.058Z,2.67
2022-07-30T12:35:46.879Z,2.63
2022-07-30T12:38:16.129Z,2.30
2022-07-30T12:40:57.552Z,2.38
2022-07-30T12:43:43.803Z,2.60
2022-07-30T12:46:14.864Z,2.67
2022-07-30T12:48:56.195Z,2.53
2022-07-30T12:51:24.738Z,2.20
2022-07-30T12:56:45.591Z,2.42
2022-07-30T12:59:22.853Z,2.78
2022-07-30T13:01:52.389Z,2.42
2022-07-30T13:04:20.608Z,2.47
2022-07-30T13:07:03.564Z,2.58
2022-07-30T13:09:31.562Z,2.20
2022-07-30T13:11:59.268Z,1.92
2022-07-30T13:14:29.463Z,1.70
2022-07-30T13:16:58.316Z,1.23
2022-07-30T13:21:53.523Z,1.45
2022-07-30T13:24:21.225Z,1.60
2022-07-30T13:26:50.581Z,1.50
2022-07-30T13:29:18.700Z,1.67
2022-07-30T13:31:47.623Z,1.60
2022-07-30T13:34:15.331Z,1.20
2022-07-30T13:36:43.135Z,1.20
2022-07-30T13:39:12.091Z,1.70
2022-07-30T13:41:41.636Z,1.50
2022-07-30T13:44:09.258Z,1.73
2022-07-30T13:46:36.911Z,1.95
2022-07-30T13:49:05.969Z,1.60
2022-07-30T13:51:34.211Z,2.00
2022-07-30T13:54:01.861Z,1.60
2022-07-30T13:56:29.639Z,1.67
2022-07-30T13:58:57.325Z,1.70
2022-07-30T14:01:25.012Z,1.70
2022-07-30T14:03:52.685Z,1.67
2022-07-30T14:06:21.688Z,1.73
2022-07-30T14:08:49.297Z,1.77
2022-07-30T14:11:17.876Z,1.50
2022-07-30T14:13:45.716Z,1.48
2022-07-30T14:16:35.446Z,1.38
2022-07-30T14:19:23.061Z,0.95
2022-07-30T14:21:53.940Z,1.40
2022-07-30T14:24:22.002Z,1.30
2022-07-30T14:26:50.839Z,0.80
2022-07-30T14:29:21.297Z,1.05
2022-07-30T14:31:49.003Z,1.37
2022-07-30T14:34:17.548Z,0.73
2022-07-30T14:36:45.151Z,1.00
2022-07-30T14:39:14.750Z,1.20
2022-07-30T14:41:43.153Z,0.90
2022-07-30T14:44:12.327Z,1.00
2022-07-30T14:47:01.996Z,0.80
2022-07-30T14:49:27.931Z,1.23
2022-07-30T14:51:55.678Z,1.02
2022-07-30T14:54:24.791Z,0.77
2022-07-30T14:59:25.488Z,0.85
2022-07-30T15:01:53.223Z,0.73
2022-07-30T15:04:20.998Z,1.10
2022-07-30T15:06:48.751Z,0.80
2022-07-30T15:09:16.479Z,1.13
2022-07-30T15:12:07.748Z,0.95
2022-07-30T15:14:33.408Z,0.90
2022-07-30T15:17:04.143Z,0.90
2022-07-30T15:19:32.221Z,0.73
2022-07-30T15:22:02.144Z,0.75
2022-07-30T15:24:30.571Z,0.90
2022-07-30T15:26:59.566Z,0.98
2022-07-30T15:31:57.097Z,1.10
2022-07-30T15:34:24.838Z,1.10
2022-07-30T15:36:52.559Z,1.15
2022-07-30T15:39:20.201Z,0.77
2022-07-30T15:41:47.857Z,0.90
2022-07-30T15:44:31.480Z,1.02
2022-07-30T15:49:26.744Z,0.90
2022-07-30T15:51:54.696Z,0.82
2022-07-30T15:54:24.665Z,0.85
2022-07-30T15:56:53.723Z,1.52
2022-07-30T15:59:22.036Z,1.10
2022-07-30T16:01:51.689Z,1.10
2022-07-30T16:04:20.169Z,1.23
2022-07-30T16:06:47.950Z,1.30
2022-07-30T16:09:15.895Z,1.10
2022-07-30T16:11:43.606Z,1.10
2022-07-30T16:14:11.251Z,1.15
2022-07-30T16:16:38.980Z,1.27
2022-07-30T16:19:08.226Z,0.82
2022-07-30T16:21:37.365Z,0.90
2022-07-30T16:24:05.785Z,0.80
2022-07-30T16:26:39.311Z,1.00
2022-07-30T16:29:09.598Z,1.45
2022-07-30T16:31:41.044Z,0.95
2022-07-30T16:34:09.965Z,0.93
2022-07-30T16:39:05.146Z,1.00
2022-07-30T16:41:33.052Z,1.00
2022-07-30T16:44:05.557Z,0.95
2022-07-30T16:46:33.272Z,1.00
2022-07-30T16:49:00.981Z,1.10
2022-07-30T16:51:30.691Z,1.00
2022-07-30T16:53:58.438Z,0.90
2022-07-30T16:56:26.173Z,1.20
2022-07-30T16:58:54.439Z,1.00
2022-07-30T17:01:22.147Z,1.10
2022-07-30T17:03:49.839Z,1.27
2022-07-30T17:06:17.666Z,1.17
2022-07-30T17:08:46.579Z,0.82
2022-07-30T17:11:25.113Z,1.30
2022-07-30T17:14:04.185Z,0.90
2022-07-30T17:16:32.601Z,1.30
2022-07-30T17:19:00.273Z,1.20
2022-07-30T17:21:38.042Z,1.20
2022-07-30T17:24:11.282Z,1.20
2022-07-30T17:26:40.430Z,1.00
2022-07-30T17:29:13.459Z,1.30
2022-07-30T17:31:43.185Z,1.30
2022-07-30T17:34:10.801Z,1.10
2022-07-30T17:36:38.560Z,1.20
2022-07-30T17:39:07.669Z,1.23
2022-07-30T17:42:06.869Z,0.95
2022-07-30T17:44:35.433Z,1.13
2022-07-30T17:47:03.232Z,1.20
2022-07-30T17:49:32.307Z,1.00
2022-07-30T17:52:00.856Z,0.95
2022-07-30T17:54:30.063Z,1.10
2022-07-30T17:56:57.678Z,1.50
2022-07-30T17:59:25.361Z,1.35
2022-07-30T18:01:53.039Z,1.88
2022-07-30T18:04:20.718Z,1.30
2022-07-30T18:06:49.275Z,1.50
2022-07-30T18:09:16.936Z,1.67
2022-07-30T18:11:46.017Z,1.15
2022-07-30T18:16:41.164Z,1.13
2022-07-30T18:19:08.865Z,3.97
2022-07-30T18:21:50.709Z,1.02
2022-07-30T18:24:19.233Z,1.20
2022-07-30T18:26:59.193Z,1.45
2022-07-30T18:29:26.977Z,1.90
2022-07-30T18:31:54.660Z,1.80
2022-07-30T18:34:22.417Z,1.48
2022-07-30T18:36:51.220Z,1.33
2022-07-30T18:39:18.840Z,1.33
2022-07-30T18:41:46.594Z,1.63
2022-07-30T18:44:15.672Z,1.45
2022-07-30T18:46:43.340Z,1.40
2022-07-30T18:49:34.301Z,1.48
2022-07-30T18:52:01.233Z,1.15
2022-07-30T18:54:30.492Z,1.23
2022-07-30T18:56:58.089Z,1.65
2022-07-30T18:59:27.171Z,1.70
2022-07-30T19:01:54.772Z,1.38
2022-07-30T19:04:22.416Z,2.72
2022-07-30T19:06:50.167Z,1.20
2022-07-30T19:09:18.305Z,1.45
2022-07-30T19:11:46.037Z,1.88
2022-07-30T19:14:14.256Z,1.30
2022-07-30T19:16:43.637Z,1.20
2022-07-30T19:19:12.766Z,1.30
2022-07-30T19:21:40.458Z,1.05
2022-07-30T19:24:08.396Z,1.33
2022-07-30T19:26:39.200Z,1.42
2022-07-30T19:29:32.257Z,1.38
2022-07-30T19:32:01.638Z,1.52
2022-07-30T19:34:29.462Z,1.27
2022-07-30T19:36:57.150Z,1.60
2022-07-30T19:39:25.127Z,1.30
2022-07-30T19:41:54.517Z,1.70
2022-07-30T19:44:22.377Z,1.70
2022-07-30T19:46:51.707Z,1.48
2022-07-30T19:49:21.868Z,1.67
2022-07-30T19:52:10.133Z,1.60
2022-07-30T19:54:37.238Z,1.40
2022-07-30T19:57:05.034Z,1.23
2022-07-30T19:59:45.281Z,1.67
2022-07-30T20:02:22.428Z,1.58
2022-07-30T20:04:51.616Z,1.30
2022-07-30T20:07:19.200Z,1.38
2022-07-30T20:09:51.550Z,1.60
2022-07-30T20:12:19.402Z,1.20
2022-07-30T20:14:51.971Z,1.48
2022-07-30T20:17:19.561Z,1.98
2022-07-30T20:19:48.618Z,1.60
2022-07-30T20:22:17.737Z,1.48
2022-07-30T20:24:47.906Z,1.48
2022-07-30T20:27:36.220Z,1.20
2022-07-30T20:30:04.682Z,1.48
2022-07-30T20:32:32.498Z,1.63
2022-07-30T20:35:00.273Z,1.60
2022-07-30T20:37:29.439Z,1.65
2022-07-30T20:39:57.024Z,1.63
2022-07-30T20:42:25.200Z,1.70
2022-07-30T20:44:54.308Z,1.50
2022-07-30T20:47:34.950Z,1.58
2022-07-30T20:50:19.737Z,1.73
2022-07-30T20:53:00.310Z,1.70
2022-07-30T20:55:28.035Z,1.67
2022-07-30T20:58:06.933Z,1.80
2022-07-30T21:00:41.962Z,1.77
2022-07-30T21:03:21.288Z,1.80
2022-07-30T21:05:52.366Z,1.92
2022-07-30T21:08:25.238Z,1.88
2022-07-30T21:10:53.398Z,1.92
2022-07-30T21:13:22.944Z,1.75
2022-07-30T21:16:02.402Z,2.33
2022-07-30T21:18:30.835Z,2.78
2022-07-30T21:20:58.456Z,2.92
2022-07-30T21:23:29.843Z,2.42
2022-07-30T21:26:04.771Z,2.63
2022-07-30T21:28:35.356Z,2.50
2022-07-30T21:31:03.597Z,2.60
2022-07-30T21:33:31.886Z,2.47
2022-07-30T21:35:59.563Z,2.40
2022-07-30T21:38:27.615Z,1.90
2022-07-30T21:40:58.707Z,2.70
2022-07-30T21:43:29.471Z,2.10
2022-07-30T21:45:57.951Z,2.67
2022-07-30T21:48:25.846Z,2.30
2022-07-30T21:51:19.667Z,3.58
2022-07-30T21:53:47.325Z,2.63
2022-07-30T21:56:16.626Z,2.75
2022-07-30T21:58:44.449Z,2.63
2022-07-30T22:01:17.163Z,3.90
2022-07-30T22:04:04.728Z,4.18
2022-07-30T22:06:33.992Z,2.55
2022-07-30T22:09:03.438Z,2.65
2022-07-30T22:11:42.775Z,2.33
2022-07-30T22:14:14.298Z,2.63
2022-07-30T22:16:46.303Z,2.90
2022-07-30T22:19:14.525Z,2.03
2022-07-30T22:21:42.404Z,2.55
2022-07-30T22:24:10.207Z,2.50
2022-07-30T22:26:57.738Z,2.53
2022-07-30T22:29:34.047Z,2.40
2022-07-30T22:32:27.559Z,2.25
2022-07-30T22:34:55.509Z,2.40
2022-07-30T22:37:25.174Z,2.70
2022-07-30T22:40:01.833Z,2.30
2022-07-30T22:42:29.431Z,2.20
2022-07-30T22:44:59.473Z,2.17
2022-07-30T22:47:50.681Z,2.20
2022-07-30T22:50:15.226Z,2.03
2022-07-30T22:52:55.324Z,2.00
2022-07-30T22:55:37.799Z,1.80
2022-07-30T22:58:05.461Z,2.10
2022-07-30T23:00:34.670Z,2.10
2022-07-30T23:03:04.321Z,2.22
2022-07-30T23:05:36.838Z,2.35
2022-07-30T23:08:07.731Z,1.90
2022-07-30T23:10:35.379Z,2.35
2022-07-30T23:13:28.990Z,2.10
2022-07-30T23:15:58.060Z,2.50
2022-07-30T23:18:25.676Z,1.73
2022-07-30T23:20:55.056Z,1.90
2022-07-30T23:23:26.110Z,1.90
2022-07-30T23:25:58.449Z,1.75
2022-07-30T23:28:26.254Z,2.75
2022-07-30T23:30:53.829Z,2.03
2022-07-30T23:33:45.463Z,1.92
2022-07-30T23:36:13.082Z,1.90
2022-07-30T23:38:40.674Z,2.05
2022-07-30T23:41:08.615Z,1.88
2022-07-30T23:43:36.227Z,2.08
2022-07-30T23:46:03.900Z,1.73
2022-07-30T23:48:38.478Z,1.60
2022-07-30T23:51:06.115Z,1.92
2022-07-30T23:53:42.096Z,1.42
2022-07-30T23:56:14.543Z,1.67
2022-07-30T23:58:42.412Z,1.60
